Air Navigation Services of Czech Republic
Airport: LKKV Updated:  15.10.2019 19:00:31  UTC
 METAR LKKV 15.10. 19:00 ...
METAR LKKV 151900Z VRB02KT 9000 OVC008 11/10 Q1008 RMK REG QNH 1005=
 TAF LKKV 15.10. 17:00 ...
TAF LKKV 151700Z 1518/1700 12005KT 8000 BKN007      BECMG 1521/1523 26010KT 5000 BR BKN016      TEMPO 1523/1618 27013G24KT 2500 RA BKN009      BECMG 1618/1620 20004KT CAVOK=